createdAt,value
2022-10-17T00:03:43.997Z,54.00
2022-10-17T00:08:47.416Z,54.00
2022-10-17T00:13:55.322Z,54.10
2022-10-17T00:18:59.089Z,54.10
2022-10-17T00:24:02.647Z,54.20
2022-10-17T00:29:07.357Z,54.20
2022-10-17T00:34:10.820Z,54.20
2022-10-17T00:39:14.256Z,54.20
2022-10-17T00:44:54.996Z,54.20
2022-10-17T00:55:13.114Z,54.30
2022-10-17T01:00:17.279Z,54.40
2022-10-17T01:05:24.462Z,54.30
2022-10-17T01:10:32.770Z,54.40
2022-10-17T01:15:46.566Z,54.40
2022-10-17T01:21:23.799Z,54.50
2022-10-17T01:26:36.791Z,54.50
2022-10-17T01:31:47.841Z,54.40
2022-10-17T01:36:56.307Z,54.50
2022-10-17T01:42:08.213Z,54.50
2022-10-17T01:47:18.587Z,54.50
2022-10-17T01:52:26.099Z,54.60
2022-10-17T01:57:35.335Z,55.30
2022-10-17T02:02:41.283Z,54.50
2022-10-17T02:07:44.516Z,54.70
2022-10-17T02:12:56.186Z,54.50
2022-10-17T02:18:19.115Z,54.70
2022-10-17T02:23:29.139Z,54.80
2022-10-17T02:28:41.099Z,54.70
2022-10-17T02:33:50.747Z,54.70
2022-10-17T02:38:57.817Z,54.80
2022-10-17T02:44:02.649Z,55.40
2022-10-17T02:49:14.535Z,54.70
2022-10-17T02:54:22.433Z,54.90
2022-10-17T02:59:28.688Z,54.90
2022-10-17T03:04:34.809Z,54.90
2022-10-17T03:09:38.192Z,54.90
2022-10-17T03:14:41.592Z,54.90
2022-10-17T03:19:46.489Z,55.00
2022-10-17T03:24:51.810Z,55.10
2022-10-17T03:29:56.544Z,55.10
2022-10-17T03:35:01.317Z,55.10
2022-10-17T03:40:05.357Z,55.20
2022-10-17T03:45:09.410Z,55.20
2022-10-17T03:50:15.304Z,55.10
2022-10-17T03:55:19.576Z,55.20
2022-10-17T04:00:23.807Z,55.20
2022-10-17T04:05:35.738Z,55.20
2022-10-17T04:10:39.105Z,55.30
2022-10-17T04:15:42.479Z,55.20
2022-10-17T04:20:47.416Z,55.20
2022-10-17T04:25:50.936Z,55.30
2022-10-17T04:30:58.433Z,55.20
2022-10-17T04:36:08.833Z,55.40
2022-10-17T04:41:14.503Z,55.40
2022-10-17T04:46:18.013Z,55.30
2022-10-17T04:51:26.509Z,55.30
2022-10-17T04:56:49.743Z,55.40
2022-10-17T05:01:53.220Z,55.40
2022-10-17T05:06:59.203Z,55.40
2022-10-17T05:12:10.335Z,55.50
2022-10-17T05:17:17.802Z,56.80
2022-10-17T05:22:22.863Z,57.00
2022-10-17T05:27:26.605Z,56.60
2022-10-17T05:32:30.835Z,56.20
2022-10-17T05:37:36.832Z,55.90
2022-10-17T05:42:41.332Z,55.80
2022-10-17T05:47:45.668Z,55.50
2022-10-17T05:52:54.853Z,55.50
2022-10-17T05:58:01.176Z,55.70
2022-10-17T06:03:12.821Z,55.60
2022-10-17T06:08:18.059Z,55.60
2022-10-17T06:13:21.827Z,55.70
2022-10-17T06:18:28.131Z,55.80
2022-10-17T06:23:33.560Z,56.00
2022-10-17T06:28:44.840Z,56.70
2022-10-17T06:33:49.440Z,56.00
2022-10-17T06:38:54.775Z,56.40
2022-10-17T06:44:11.360Z,56.70
2022-10-17T06:49:23.888Z,56.20
2022-10-17T06:54:52.242Z,56.00
2022-10-17T07:00:08.228Z,55.90
2022-10-17T07:05:19.533Z,56.40
2022-10-17T07:10:38.714Z,56.40
2022-10-17T07:15:45.564Z,55.90
2022-10-17T07:20:54.941Z,56.10
2022-10-17T07:26:03.268Z,56.60
2022-10-17T07:31:08.047Z,57.30
2022-10-17T07:36:11.768Z,57.00
2022-10-17T07:41:19.452Z,56.70
2022-10-17T07:46:25.882Z,56.60
2022-10-17T07:51:30.149Z,56.30
2022-10-17T07:56:34.932Z,56.10
2022-10-17T08:01:38.265Z,57.00
2022-10-17T08:06:41.765Z,57.00
2022-10-17T08:11:46.841Z,57.00
2022-10-17T08:16:50.629Z,56.50
2022-10-17T08:21:54.526Z,56.00
2022-10-17T08:27:00.956Z,55.60
2022-10-17T08:32:07.670Z,55.40
2022-10-17T08:37:13.712Z,55.70
2022-10-17T08:42:43.548Z,55.70
2022-10-17T08:47:49.743Z,55.00
2022-10-17T08:52:55.921Z,55.70
2022-10-17T08:58:01.129Z,55.70
2022-10-17T09:03:22.263Z,56.00
2022-10-17T09:08:42.499Z,55.80
2022-10-17T09:13:58.669Z,55.90
2022-10-17T09:19:08.874Z,56.10
2022-10-17T09:24:17.554Z,55.80
2022-10-17T09:29:25.187Z,55.40
2022-10-17T09:34:30.478Z,55.30
2022-10-17T09:39:33.937Z,55.30
2022-10-17T09:44:47.618Z,55.00
2022-10-17T09:49:51.669Z,54.30
2022-10-17T09:54:58.607Z,54.90
2022-10-17T10:00:06.526Z,54.70
2022-10-17T10:05:20.024Z,54.60
2022-10-17T10:10:28.527Z,54.50
2022-10-17T10:15:38.023Z,53.80
2022-10-17T10:20:41.859Z,54.00
2022-10-17T10:25:56.069Z,54.20
2022-10-17T10:31:04.736Z,52.70
2022-10-17T10:36:09.254Z,53.30
2022-10-17T10:41:13.121Z,53.40
2022-10-17T10:46:25.102Z,53.10
2022-10-17T10:51:33.613Z,52.00
2022-10-17T10:56:41.849Z,52.00
2022-10-17T11:01:53.379Z,51.80
2022-10-17T11:07:03.236Z,50.70
2022-10-17T11:12:12.371Z,50.60
2022-10-17T11:17:28.927Z,50.80
2022-10-17T11:22:35.813Z,49.70
2022-10-17T11:27:39.912Z,49.90
2022-10-17T11:32:47.143Z,49.70
2022-10-17T11:37:55.281Z,48.50
2022-10-17T11:43:02.285Z,48.40
2022-10-17T11:48:13.708Z,48.40
2022-10-17T11:53:20.960Z,47.60
2022-10-17T11:58:35.969Z,47.80
2022-10-17T12:03:55.428Z,47.10
2022-10-17T12:09:08.432Z,47.10
2022-10-17T12:14:36.834Z,46.70
2022-10-17T12:19:41.516Z,46.70
2022-10-17T12:24:46.267Z,47.20
2022-10-17T12:29:50.710Z,47.30
2022-10-17T12:34:56.327Z,47.20
2022-10-17T12:39:59.723Z,47.00
2022-10-17T12:45:03.261Z,46.90
2022-10-17T12:51:17.556Z,46.90
2022-10-17T12:56:23.563Z,45.70
2022-10-17T13:01:31.640Z,46.60
2022-10-17T13:06:41.283Z,46.80
2022-10-17T13:11:45.346Z,45.70
2022-10-17T13:16:54.058Z,46.40
2022-10-17T13:22:06.336Z,45.20
2022-10-17T13:27:25.079Z,45.60
2022-10-17T13:32:36.422Z,44.70
2022-10-17T13:37:43.849Z,45.70
2022-10-17T13:42:48.409Z,45.00
2022-10-17T13:47:51.831Z,45.50
2022-10-17T13:53:17.407Z,45.40
2022-10-17T13:58:20.938Z,44.30
2022-10-17T14:03:31.235Z,45.30
2022-10-17T14:08:53.787Z,45.20
2022-10-17T14:13:58.836Z,44.30
2022-10-17T14:19:02.544Z,45.20
2022-10-17T14:24:30.130Z,45.10
2022-10-17T14:29:49.459Z,44.00
2022-10-17T14:35:05.598Z,44.80
2022-10-17T14:40:20.185Z,44.50
2022-10-17T14:45:28.237Z,44.10
2022-10-17T14:50:33.547Z,44.70
2022-10-17T14:55:40.220Z,44.50
2022-10-17T15:00:43.497Z,44.20
2022-10-17T15:05:47.506Z,44.40
2022-10-17T15:10:53.497Z,44.50
2022-10-17T15:15:56.827Z,43.90
2022-10-17T15:21:05.439Z,44.30
2022-10-17T15:26:23.914Z,44.20
2022-10-17T15:31:28.641Z,43.80
2022-10-17T15:36:37.046Z,44.30
2022-10-17T15:41:42.084Z,44.20
2022-10-17T15:46:45.493Z,43.60
2022-10-17T15:51:54.380Z,43.80
2022-10-17T15:57:00.005Z,43.80
2022-10-17T16:02:03.390Z,43.80
2022-10-17T16:07:07.440Z,44.00
2022-10-17T16:12:17.857Z,44.60
2022-10-17T16:17:21.393Z,43.80
2022-10-17T16:22:32.666Z,44.00
2022-10-17T16:27:39.186Z,42.90
2022-10-17T16:32:43.167Z,43.10
2022-10-17T16:37:47.607Z,43.60
2022-10-17T16:42:52.358Z,43.90
2022-10-17T16:47:56.344Z,43.50
2022-10-17T16:52:59.864Z,42.90
2022-10-17T16:58:04.717Z,42.80
2022-10-17T17:03:08.443Z,42.40
2022-10-17T17:08:12.655Z,42.50
2022-10-17T17:13:19.329Z,42.40
2022-10-17T17:18:25.021Z,42.30
2022-10-17T17:23:29.403Z,42.30
2022-10-17T17:28:36.190Z,42.30
2022-10-17T17:33:43.089Z,42.60
2022-10-17T17:38:48.542Z,42.10
2022-10-17T17:43:54.699Z,42.20
2022-10-17T17:48:58.598Z,42.10
2022-10-17T17:54:02.788Z,42.70
2022-10-17T17:59:08.845Z,42.70
2022-10-17T18:04:13.177Z,42.70
2022-10-17T18:09:18.811Z,42.70
2022-10-17T18:14:29.107Z,42.60
2022-10-17T18:19:38.318Z,42.70
2022-10-17T18:24:43.589Z,42.80
2022-10-17T18:29:50.905Z,42.90
2022-10-17T18:34:54.963Z,42.90
2022-10-17T18:40:02.989Z,43.00
2022-10-17T18:45:11.474Z,43.10
2022-10-17T18:50:15.759Z,43.00
2022-10-17T18:55:21.275Z,43.30
2022-10-17T19:00:27.420Z,43.40
2022-10-17T19:05:34.660Z,43.40
2022-10-17T19:10:38.488Z,43.60
2022-10-17T19:15:43.813Z,43.60
2022-10-17T19:20:48.143Z,43.60
2022-10-17T19:25:58.334Z,43.70
2022-10-17T19:31:07.854Z,43.60
2022-10-17T19:36:13.029Z,43.70
2022-10-17T19:41:19.679Z,43.90
2022-10-17T19:46:26.725Z,43.90
2022-10-17T19:51:31.260Z,43.90
2022-10-17T19:56:38.383Z,44.00
2022-10-17T20:01:44.741Z,44.10
2022-10-17T20:06:48.468Z,44.10
2022-10-17T20:11:52.871Z,44.80
2022-10-17T20:16:59.060Z,44.20
2022-10-17T20:22:06.004Z,44.20
2022-10-17T20:27:10.027Z,44.20
2022-10-17T20:32:14.893Z,44.20
2022-10-17T20:37:18.199Z,44.30
2022-10-17T20:42:22.496Z,44.30
2022-10-17T20:47:43.593Z,44.40
2022-10-17T20:52:49.145Z,44.40
2022-10-17T20:57:54.672Z,44.50
2022-10-17T21:02:59.626Z,44.50
2022-10-17T21:08:03.050Z,44.60
2022-10-17T21:13:06.578Z,44.60
2022-10-17T21:18:11.242Z,44.60
2022-10-17T21:23:14.707Z,44.70
2022-10-17T21:28:17.982Z,44.70
2022-10-17T21:33:22.984Z,44.70
2022-10-17T21:38:26.199Z,44.80
2022-10-17T21:43:29.589Z,44.70
2022-10-17T21:48:34.800Z,44.80
2022-10-17T21:53:38.402Z,44.80
2022-10-17T21:58:42.497Z,44.80
2022-10-17T22:03:49.926Z,44.90
2022-10-17T22:08:53.652Z,44.90
2022-10-17T22:13:58.572Z,44.90
2022-10-17T22:19:06.626Z,44.90
2022-10-17T22:24:14.236Z,44.90
2022-10-17T22:29:18.052Z,44.90
2022-10-17T22:34:22.855Z,45.00
2022-10-17T22:39:26.193Z,45.10
2022-10-17T22:44:29.582Z,45.10
2022-10-17T22:49:35.212Z,45.10
2022-10-17T22:54:38.677Z,45.10
2022-10-17T22:59:42.030Z,45.20
2022-10-17T23:04:46.743Z,45.20
2022-10-17T23:09:50.299Z,45.30
2022-10-17T23:14:53.721Z,45.30
2022-10-17T23:19:58.682Z,45.30
2022-10-17T23:25:01.971Z,45.40
2022-10-17T23:30:05.889Z,45.40
2022-10-17T23:35:11.304Z,45.40
2022-10-17T23:40:15.183Z,45.60
2022-10-17T23:45:19.196Z,45.60
2022-10-17T23:50:23.959Z,45.70
2022-10-17T23:55:27.446Z,45.70
